sensor_id;sensor_type;location;lat;lon;timestamp;P1;durP1;ratioP1;P2;durP2;ratioP2
57969;SDS011;43777;42.656;23.264;2022-07-10T00:01:32;15.70;;;13.25;;
57969;SDS011;43777;42.656;23.264;2022-07-10T00:03:58;17.00;;;14.07;;
57969;SDS011;43777;42.656;23.264;2022-07-10T00:06:24;13.90;;;12.45;;
57969;SDS011;43777;42.656;23.264;2022-07-10T00:08:50;13.82;;;12.40;;
57969;SDS011;43777;42.656;23.264;2022-07-10T00:11:16;13.77;;;12.57;;
57969;SDS011;43777;42.656;23.264;2022-07-10T00:13:42;14.95;;;13.45;;
57969;SDS011;43777;42.656;23.264;2022-07-10T00:16:08;16.00;;;14.45;;
57969;SDS011;43777;42.656;23.264;2022-07-10T00:18:34;15.27;;;13.68;;
57969;SDS011;43777;42.656;23.264;2022-07-10T00:21:01;14.90;;;13.35;;
57969;SDS011;43777;42.656;23.264;2022-07-10T00:23:27;14.63;;;13.20;;
57969;SDS011;43777;42.656;23.264;2022-07-10T00:25:53;13.65;;;12.35;;
57969;SDS011;43777;42.656;23.264;2022-07-10T00:28:19;14.70;;;13.30;;
57969;SDS011;43777;42.656;23.264;2022-07-10T00:30:45;14.73;;;13.43;;
57969;SDS011;43777;42.656;23.264;2022-07-10T00:33:11;15.73;;;14.23;;
57969;SDS011;43777;42.656;23.264;2022-07-10T00:35:37;15.55;;;13.95;;
57969;SDS011;43777;42.656;23.264;2022-07-10T00:38:03;13.70;;;12.50;;
57969;SDS011;43777;42.656;23.264;2022-07-10T00:40:29;15.05;;;13.55;;
57969;SDS011;43777;42.656;23.264;2022-07-10T00:42:55;14.40;;;13.00;;
57969;SDS011;43777;42.656;23.264;2022-07-10T00:45:21;14.18;;;12.77;;
57969;SDS011;43777;42.656;23.264;2022-07-10T00:47:47;15.45;;;12.70;;
57969;SDS011;43777;42.656;23.264;2022-07-10T00:50:13;13.80;;;12.52;;
57969;SDS011;43777;42.656;23.264;2022-07-10T00:52:40;14.23;;;12.73;;
57969;SDS011;43777;42.656;23.264;2022-07-10T00:55:06;13.02;;;11.93;;
57969;SDS011;43777;42.656;23.264;2022-07-10T00:57:33;14.25;;;12.93;;
57969;SDS011;43777;42.656;23.264;2022-07-10T01:00:00;13.07;;;11.82;;
57969;SDS011;43777;42.656;23.264;2022-07-10T01:02:26;14.18;;;12.68;;
57969;SDS011;43777;42.656;23.264;2022-07-10T01:04:52;13.95;;;12.75;;
57969;SDS011;43777;42.656;23.264;2022-07-10T01:07:18;14.73;;;13.35;;
57969;SDS011;43777;42.656;23.264;2022-07-10T01:09:44;13.18;;;11.98;;
57969;SDS011;43777;42.656;23.264;2022-07-10T01:12:11;14.32;;;12.95;;
57969;SDS011;43777;42.656;23.264;2022-07-10T01:14:37;14.15;;;12.70;;
57969;SDS011;43777;42.656;23.264;2022-07-10T01:17:05;14.32;;;12.88;;
57969;SDS011;43777;42.656;23.264;2022-07-10T01:19:32;13.57;;;12.23;;
57969;SDS011;43777;42.656;23.264;2022-07-10T01:21:58;15.00;;;12.35;;
57969;SDS011;43777;42.656;23.264;2022-07-10T01:24:24;13.18;;;11.98;;
57969;SDS011;43777;42.656;23.264;2022-07-10T01:26:50;13.82;;;12.05;;
57969;SDS011;43777;42.656;23.264;2022-07-10T01:29:16;13.07;;;11.77;;
57969;SDS011;43777;42.656;23.264;2022-07-10T01:31:42;12.55;;;11.45;;
57969;SDS011;43777;42.656;23.264;2022-07-10T01:34:08;12.43;;;11.32;;
57969;SDS011;43777;42.656;23.264;2022-07-10T01:36:35;13.30;;;12.10;;
57969;SDS011;43777;42.656;23.264;2022-07-10T01:39:02;13.77;;;12.40;;
57969;SDS011;43777;42.656;23.264;2022-07-10T01:41:28;12.77;;;11.48;;
57969;SDS011;43777;42.656;23.264;2022-07-10T01:43:54;13.05;;;11.75;;
57969;SDS011;43777;42.656;23.264;2022-07-10T01:46:20;12.63;;;11.32;;
57969;SDS011;43777;42.656;23.264;2022-07-10T01:48:46;12.40;;;11.30;;
57969;SDS011;43777;42.656;23.264;2022-07-10T01:51:13;13.50;;;12.15;;
57969;SDS011;43777;42.656;23.264;2022-07-10T01:53:39;20.05;;;11.70;;
57969;SDS011;43777;42.656;23.264;2022-07-10T01:56:10;11.38;;;10.38;;
57969;SDS011;43777;42.656;23.264;2022-07-10T01:58:36;11.95;;;10.85;;
57969;SDS011;43777;42.656;23.264;2022-07-10T02:01:02;12.43;;;10.93;;
57969;SDS011;43777;42.656;23.264;2022-07-10T02:03:29;12.20;;;10.93;;
57969;SDS011;43777;42.656;23.264;2022-07-10T02:06:13;12.38;;;11.00;;
57969;SDS011;43777;42.656;23.264;2022-07-10T02:08:40;11.68;;;10.63;;
57969;SDS011;43777;42.656;23.264;2022-07-10T02:11:06;11.95;;;10.88;;
57969;SDS011;43777;42.656;23.264;2022-07-10T02:13:32;12.98;;;11.43;;
57969;SDS011;43777;42.656;23.264;2022-07-10T02:15:58;12.52;;;11.10;;
57969;SDS011;43777;42.656;23.264;2022-07-10T02:18:24;11.75;;;10.75;;
57969;SDS011;43777;42.656;23.264;2022-07-10T02:20:51;12.18;;;11.07;;
57969;SDS011;43777;42.656;23.264;2022-07-10T02:23:17;12.63;;;11.32;;
57969;SDS011;43777;42.656;23.264;2022-07-10T02:25:43;11.70;;;10.70;;
57969;SDS011;43777;42.656;23.264;2022-07-10T02:28:09;14.50;;;11.32;;
57969;SDS011;43777;42.656;23.264;2022-07-10T02:30:35;12.75;;;11.45;;
57969;SDS011;43777;42.656;23.264;2022-07-10T02:33:01;13.02;;;11.00;;
57969;SDS011;43777;42.656;23.264;2022-07-10T02:35:28;12.63;;;11.27;;
57969;SDS011;43777;42.656;23.264;2022-07-10T02:37:54;11.05;;;10.00;;
57969;SDS011;43777;42.656;23.264;2022-07-10T02:40:20;16.45;;;11.68;;
57969;SDS011;43777;42.656;23.264;2022-07-10T02:42:46;11.13;;;10.20;;
57969;SDS011;43777;42.656;23.264;2022-07-10T02:45:12;12.77;;;11.18;;
57969;SDS011;43777;42.656;23.264;2022-07-10T02:47:39;11.60;;;10.40;;
57969;SDS011;43777;42.656;23.264;2022-07-10T02:50:05;12.55;;;10.57;;
57969;SDS011;43777;42.656;23.264;2022-07-10T02:52:31;12.07;;;10.98;;
57969;SDS011;43777;42.656;23.264;2022-07-10T02:54:57;10.90;;;9.85;;
57969;SDS011;43777;42.656;23.264;2022-07-10T02:57:24;11.48;;;10.48;;
57969;SDS011;43777;42.656;23.264;2022-07-10T02:59:50;12.00;;;10.88;;
57969;SDS011;43777;42.656;23.264;2022-07-10T03:02:16;13.90;;;11.35;;
57969;SDS011;43777;42.656;23.264;2022-07-10T03:04:42;11.80;;;10.57;;
57969;SDS011;43777;42.656;23.264;2022-07-10T03:07:08;11.98;;;10.88;;
57969;SDS011;43777;42.656;23.264;2022-07-10T03:09:34;12.70;;;11.48;;
57969;SDS011;43777;42.656;23.264;2022-07-10T03:12:00;13.25;;;11.65;;
57969;SDS011;43777;42.656;23.264;2022-07-10T03:14:26;12.48;;;11.27;;
57969;SDS011;43777;42.656;23.264;2022-07-10T03:16:52;13.32;;;11.70;;
57969;SDS011;43777;42.656;23.264;2022-07-10T03:19:18;12.32;;;11.15;;
57969;SDS011;43777;42.656;23.264;2022-07-10T03:21:44;12.65;;;11.48;;
57969;SDS011;43777;42.656;23.264;2022-07-10T03:24:11;12.95;;;11.57;;
57969;SDS011;43777;42.656;23.264;2022-07-10T03:26:37;12.35;;;11.15;;
57969;SDS011;43777;42.656;23.264;2022-07-10T03:29:03;12.32;;;11.23;;
57969;SDS011;43777;42.656;23.264;2022-07-10T03:31:29;12.38;;;11.18;;
57969;SDS011;43777;42.656;23.264;2022-07-10T03:33:55;14.18;;;11.73;;
57969;SDS011;43777;42.656;23.264;2022-07-10T03:36:21;13.20;;;11.55;;
57969;SDS011;43777;42.656;23.264;2022-07-10T03:38:47;13.20;;;12.00;;
57969;SDS011;43777;42.656;23.264;2022-07-10T03:41:13;12.70;;;11.48;;
57969;SDS011;43777;42.656;23.264;2022-07-10T03:43:39;12.90;;;11.70;;
57969;SDS011;43777;42.656;23.264;2022-07-10T03:46:06;13.05;;;11.63;;
57969;SDS011;43777;42.656;23.264;2022-07-10T03:48:32;13.98;;;12.68;;
57969;SDS011;43777;42.656;23.264;2022-07-10T03:50:58;12.82;;;11.60;;
57969;SDS011;43777;42.656;23.264;2022-07-10T03:53:24;12.50;;;11.18;;
57969;SDS011;43777;42.656;23.264;2022-07-10T03:55:50;13.38;;;11.60;;
57969;SDS011;43777;42.656;23.264;2022-07-10T03:58:17;11.80;;;10.68;;
57969;SDS011;43777;42.656;23.264;2022-07-10T04:00:43;12.35;;;11.13;;
57969;SDS011;43777;42.656;23.264;2022-07-10T04:03:09;11.98;;;10.77;;
57969;SDS011;43777;42.656;23.264;2022-07-10T04:05:36;12.48;;;11.27;;
57969;SDS011;43777;42.656;23.264;2022-07-10T04:08:02;12.48;;;11.18;;
57969;SDS011;43777;42.656;23.264;2022-07-10T04:10:29;14.65;;;10.88;;
57969;SDS011;43777;42.656;23.264;2022-07-10T04:12:59;12.60;;;10.77;;
57969;SDS011;43777;42.656;23.264;2022-07-10T04:15:25;11.05;;;10.05;;
57969;SDS011;43777;42.656;23.264;2022-07-10T04:17:51;11.57;;;10.32;;
57969;SDS011;43777;42.656;23.264;2022-07-10T04:20:19;11.93;;;10.80;;
57969;SDS011;43777;42.656;23.264;2022-07-10T04:22:45;11.07;;;10.07;;
57969;SDS011;43777;42.656;23.264;2022-07-10T04:25:12;11.48;;;10.32;;
57969;SDS011;43777;42.656;23.264;2022-07-10T04:27:38;11.43;;;10.23;;
57969;SDS011;43777;42.656;23.264;2022-07-10T04:30:04;11.23;;;10.23;;
57969;SDS011;43777;42.656;23.264;2022-07-10T04:32:31;11.57;;;10.48;;
57969;SDS011;43777;42.656;23.264;2022-07-10T04:34:57;10.88;;;9.82;;
57969;SDS011;43777;42.656;23.264;2022-07-10T04:37:23;11.80;;;10.75;;
57969;SDS011;43777;42.656;23.264;2022-07-10T04:39:49;12.90;;;9.77;;
57969;SDS011;43777;42.656;23.264;2022-07-10T04:42:16;10.35;;;9.00;;
57969;SDS011;43777;42.656;23.264;2022-07-10T04:44:42;10.80;;;9.70;;
57969;SDS011;43777;42.656;23.264;2022-07-10T04:47:08;9.75;;;8.75;;
57969;SDS011;43777;42.656;23.264;2022-07-10T04:49:34;9.95;;;8.88;;
57969;SDS011;43777;42.656;23.264;2022-07-10T04:52:00;9.80;;;8.90;;
57969;SDS011;43777;42.656;23.264;2022-07-10T04:54:26;9.48;;;8.60;;
57969;SDS011;43777;42.656;23.264;2022-07-10T04:56:52;9.77;;;8.88;;
57969;SDS011;43777;42.656;23.264;2022-07-10T04:59:18;10.95;;;8.95;;
57969;SDS011;43777;42.656;23.264;2022-07-10T05:01:45;8.90;;;8.00;;
57969;SDS011;43777;42.656;23.264;2022-07-10T05:04:11;9.68;;;8.52;;
57969;SDS011;43777;42.656;23.264;2022-07-10T05:06:37;9.05;;;8.07;;
57969;SDS011;43777;42.656;23.264;2022-07-10T05:09:04;10.77;;;8.02;;
57969;SDS011;43777;42.656;23.264;2022-07-10T05:11:30;10.05;;;8.52;;
57969;SDS011;43777;42.656;23.264;2022-07-10T05:13:56;9.20;;;8.30;;
57969;SDS011;43777;42.656;23.264;2022-07-10T05:16:22;10.85;;;8.98;;
57969;SDS011;43777;42.656;23.264;2022-07-10T05:18:48;8.77;;;7.97;;
57969;SDS011;43777;42.656;23.264;2022-07-10T05:21:14;9.02;;;8.07;;
57969;SDS011;43777;42.656;23.264;2022-07-10T05:23:41;9.38;;;7.80;;
57969;SDS011;43777;42.656;23.264;2022-07-10T05:26:07;8.70;;;7.90;;
57969;SDS011;43777;42.656;23.264;2022-07-10T05:28:33;9.48;;;8.57;;
57969;SDS011;43777;42.656;23.264;2022-07-10T05:30:59;8.68;;;7.93;;
57969;SDS011;43777;42.656;23.264;2022-07-10T05:33:25;8.80;;;8.05;;
57969;SDS011;43777;42.656;23.264;2022-07-10T05:35:53;9.50;;;8.52;;
57969;SDS011;43777;42.656;23.264;2022-07-10T05:38:19;11.65;;;8.25;;
57969;SDS011;43777;42.656;23.264;2022-07-10T05:40:45;9.27;;;8.32;;
57969;SDS011;43777;42.656;23.264;2022-07-10T05:43:11;10.77;;;9.05;;
57969;SDS011;43777;42.656;23.264;2022-07-10T05:45:37;10.52;;;8.45;;
57969;SDS011;43777;42.656;23.264;2022-07-10T05:48:04;12.20;;;8.32;;
57969;SDS011;43777;42.656;23.264;2022-07-10T05:50:30;10.45;;;7.75;;
57969;SDS011;43777;42.656;23.264;2022-07-10T05:52:56;10.70;;;8.13;;
57969;SDS011;43777;42.656;23.264;2022-07-10T05:55:23;12.80;;;8.15;;
57969;SDS011;43777;42.656;23.264;2022-07-10T05:57:49;8.25;;;7.38;;
57969;SDS011;43777;42.656;23.264;2022-07-10T06:00:15;8.93;;;7.95;;
57969;SDS011;43777;42.656;23.264;2022-07-10T06:02:41;8.40;;;7.57;;
57969;SDS011;43777;42.656;23.264;2022-07-10T06:05:08;10.38;;;7.82;;
57969;SDS011;43777;42.656;23.264;2022-07-10T06:07:34;7.80;;;7.20;;
57969;SDS011;43777;42.656;23.264;2022-07-10T06:10:01;8.38;;;6.90;;
57969;SDS011;43777;42.656;23.264;2022-07-10T06:12:27;7.50;;;6.45;;
57969;SDS011;43777;42.656;23.264;2022-07-10T06:14:53;10.18;;;6.68;;
57969;SDS011;43777;42.656;23.264;2022-07-10T06:17:19;8.43;;;6.93;;
57969;SDS011;43777;42.656;23.264;2022-07-10T06:19:45;10.35;;;7.03;;
57969;SDS011;43777;42.656;23.264;2022-07-10T06:22:11;7.05;;;6.35;;
57969;SDS011;43777;42.656;23.264;2022-07-10T06:24:55;7.05;;;6.40;;
57969;SDS011;43777;42.656;23.264;2022-07-10T06:27:21;7.10;;;6.47;;
57969;SDS011;43777;42.656;23.264;2022-07-10T06:29:47;6.72;;;6.03;;
57969;SDS011;43777;42.656;23.264;2022-07-10T06:32:13;7.57;;;6.75;;
57969;SDS011;43777;42.656;23.264;2022-07-10T06:34:40;7.00;;;6.30;;
57969;SDS011;43777;42.656;23.264;2022-07-10T06:37:06;8.02;;;6.03;;
57969;SDS011;43777;42.656;23.264;2022-07-10T06:39:32;8.80;;;6.47;;
57969;SDS011;43777;42.656;23.264;2022-07-10T06:41:59;7.35;;;6.15;;
57969;SDS011;43777;42.656;23.264;2022-07-10T06:44:25;10.88;;;6.05;;
57969;SDS011;43777;42.656;23.264;2022-07-10T06:46:51;6.65;;;5.95;;
57969;SDS011;43777;42.656;23.264;2022-07-10T06:49:56;7.97;;;6.40;;
57969;SDS011;43777;42.656;23.264;2022-07-10T06:52:22;9.23;;;6.50;;
57969;SDS011;43777;42.656;23.264;2022-07-10T06:54:48;7.60;;;6.55;;
57969;SDS011;43777;42.656;23.264;2022-07-10T06:57:14;8.43;;;6.28;;
57969;SDS011;43777;42.656;23.264;2022-07-10T06:59:41;11.57;;;6.32;;
57969;SDS011;43777;42.656;23.264;2022-07-10T07:02:07;8.68;;;6.20;;
57969;SDS011;43777;42.656;23.264;2022-07-10T07:04:33;6.45;;;5.95;;
57969;SDS011;43777;42.656;23.264;2022-07-10T07:06:59;6.60;;;6.00;;
57969;SDS011;43777;42.656;23.264;2022-07-10T07:09:25;10.35;;;5.82;;
57969;SDS011;43777;42.656;23.264;2022-07-10T07:11:51;8.63;;;6.32;;
57969;SDS011;43777;42.656;23.264;2022-07-10T07:14:17;6.03;;;5.50;;
57969;SDS011;43777;42.656;23.264;2022-07-10T07:16:43;6.75;;;5.93;;
57969;SDS011;43777;42.656;23.264;2022-07-10T07:19:23;7.55;;;6.13;;
57969;SDS011;43777;42.656;23.264;2022-07-10T07:21:56;6.70;;;6.13;;
57969;SDS011;43777;42.656;23.264;2022-07-10T07:24:41;6.68;;;5.97;;
57969;SDS011;43777;42.656;23.264;2022-07-10T07:27:08;6.55;;;5.95;;
57969;SDS011;43777;42.656;23.264;2022-07-10T07:29:34;8.88;;;5.80;;
57969;SDS011;43777;42.656;23.264;2022-07-10T07:32:00;6.35;;;5.80;;
57969;SDS011;43777;42.656;23.264;2022-07-10T07:34:26;8.10;;;5.88;;
57969;SDS011;43777;42.656;23.264;2022-07-10T07:36:52;6.38;;;5.40;;
57969;SDS011;43777;42.656;23.264;2022-07-10T07:39:18;11.93;;;5.55;;
57969;SDS011;43777;42.656;23.264;2022-07-10T07:41:44;6.10;;;5.03;;
57969;SDS011;43777;42.656;23.264;2022-07-10T07:44:10;6.93;;;5.20;;
57969;SDS011;43777;42.656;23.264;2022-07-10T07:46:37;5.78;;;5.20;;
57969;SDS011;43777;42.656;23.264;2022-07-10T07:49:03;5.38;;;4.97;;
57969;SDS011;43777;42.656;23.264;2022-07-10T07:51:29;8.18;;;5.15;;
57969;SDS011;43777;42.656;23.264;2022-07-10T07:53:55;5.85;;;4.55;;
57969;SDS011;43777;42.656;23.264;2022-07-10T07:56:21;10.20;;;5.63;;
57969;SDS011;43777;42.656;23.264;2022-07-10T07:58:47;5.50;;;4.93;;
57969;SDS011;43777;42.656;23.264;2022-07-10T08:01:13;7.38;;;5.10;;
57969;SDS011;43777;42.656;23.264;2022-07-10T08:03:39;5.38;;;4.85;;
57969;SDS011;43777;42.656;23.264;2022-07-10T08:06:05;6.80;;;4.78;;
57969;SDS011;43777;42.656;23.264;2022-07-10T08:08:31;5.38;;;4.20;;
57969;SDS011;43777;42.656;23.264;2022-07-10T08:10:57;7.45;;;4.70;;
57969;SDS011;43777;42.656;23.264;2022-07-10T08:13:23;5.00;;;4.50;;
57969;SDS011;43777;42.656;23.264;2022-07-10T08:15:49;6.00;;;4.35;;
57969;SDS011;43777;42.656;23.264;2022-07-10T08:18:16;4.50;;;4.10;;
57969;SDS011;43777;42.656;23.264;2022-07-10T08:20:42;4.60;;;4.20;;
57969;SDS011;43777;42.656;23.264;2022-07-10T08:23:08;7.60;;;4.80;;
57969;SDS011;43777;42.656;23.264;2022-07-10T08:25:34;6.32;;;4.43;;
57969;SDS011;43777;42.656;23.264;2022-07-10T08:28:03;5.95;;;4.65;;
57969;SDS011;43777;42.656;23.264;2022-07-10T08:30:35;6.50;;;4.53;;
57969;SDS011;43777;42.656;23.264;2022-07-10T08:33:01;6.60;;;4.68;;
57969;SDS011;43777;42.656;23.264;2022-07-10T08:35:27;5.38;;;4.72;;
57969;SDS011;43777;42.656;23.264;2022-07-10T08:37:53;8.98;;;4.93;;
57969;SDS011;43777;42.656;23.264;2022-07-10T08:40:21;5.82;;;5.10;;
57969;SDS011;43777;42.656;23.264;2022-07-10T08:42:47;5.80;;;4.50;;
57969;SDS011;43777;42.656;23.264;2022-07-10T08:45:14;5.60;;;4.63;;
57969;SDS011;43777;42.656;23.264;2022-07-10T08:47:40;5.05;;;4.57;;
57969;SDS011;43777;42.656;23.264;2022-07-10T08:50:17;7.68;;;5.20;;
57969;SDS011;43777;42.656;23.264;2022-07-10T08:53:31;8.85;;;4.57;;
57969;SDS011;43777;42.656;23.264;2022-07-10T08:55:31;4.93;;;4.53;;
57969;SDS011;43777;42.656;23.264;2022-07-10T08:57:58;6.30;;;5.45;;
57969;SDS011;43777;42.656;23.264;2022-07-10T09:00:24;5.47;;;4.70;;
57969;SDS011;43777;42.656;23.264;2022-07-10T09:02:50;6.80;;;6.20;;
57969;SDS011;43777;42.656;23.264;2022-07-10T09:05:16;5.60;;;5.20;;
57969;SDS011;43777;42.656;23.264;2022-07-10T09:07:42;7.43;;;5.13;;
57969;SDS011;43777;42.656;23.264;2022-07-10T09:10:09;7.47;;;5.00;;
57969;SDS011;43777;42.656;23.264;2022-07-10T09:15:15;7.28;;;5.93;;
57969;SDS011;43777;42.656;23.264;2022-07-10T09:18:17;7.55;;;5.72;;
57969;SDS011;43777;42.656;23.264;2022-07-10T09:20:35;6.13;;;4.72;;
57969;SDS011;43777;42.656;23.264;2022-07-10T09:23:09;9.32;;;5.00;;
57969;SDS011;43777;42.656;23.264;2022-07-10T09:25:41;9.30;;;4.70;;
57969;SDS011;43777;42.656;23.264;2022-07-10T09:28:07;6.28;;;5.07;;
57969;SDS011;43777;42.656;23.264;2022-07-10T09:35:55;5.78;;;4.88;;
57969;SDS011;43777;42.656;23.264;2022-07-10T09:41:11;10.77;;;4.72;;
57969;SDS011;43777;42.656;23.264;2022-07-10T09:43:47;5.10;;;4.70;;
57969;SDS011;43777;42.656;23.264;2022-07-10T09:46:14;7.13;;;4.82;;
57969;SDS011;43777;42.656;23.264;2022-07-10T09:48:40;5.10;;;4.47;;
57969;SDS011;43777;42.656;23.264;2022-07-10T09:51:07;7.00;;;4.80;;
57969;SDS011;43777;42.656;23.264;2022-07-10T09:53:40;5.53;;;4.63;;
57969;SDS011;43777;42.656;23.264;2022-07-10T09:56:07;5.18;;;4.68;;
57969;SDS011;43777;42.656;23.264;2022-07-10T09:58:34;5.03;;;4.47;;
57969;SDS011;43777;42.656;23.264;2022-07-10T10:01:01;8.35;;;4.65;;
57969;SDS011;43777;42.656;23.264;2022-07-10T10:03:28;6.43;;;4.35;;
57969;SDS011;43777;42.656;23.264;2022-07-10T10:06:15;6.65;;;4.25;;
57969;SDS011;43777;42.656;23.264;2022-07-10T10:11:07;7.18;;;5.40;;
57969;SDS011;43777;42.656;23.264;2022-07-10T10:13:34;5.78;;;4.38;;
57969;SDS011;43777;42.656;23.264;2022-07-10T10:16:00;4.95;;;4.45;;
57969;SDS011;43777;42.656;23.264;2022-07-10T10:18:27;6.22;;;4.47;;
57969;SDS011;43777;42.656;23.264;2022-07-10T10:20:55;7.85;;;4.45;;
57969;SDS011;43777;42.656;23.264;2022-07-10T10:23:22;7.50;;;4.47;;
57969;SDS011;43777;42.656;23.264;2022-07-10T10:25:52;5.25;;;4.63;;
57969;SDS011;43777;42.656;23.264;2022-07-10T10:28:22;6.93;;;5.15;;
57969;SDS011;43777;42.656;23.264;2022-07-10T10:30:49;4.93;;;4.53;;
57969;SDS011;43777;42.656;23.264;2022-07-10T10:35:58;4.35;;;4.05;;
57969;SDS011;43777;42.656;23.264;2022-07-10T10:38:24;5.30;;;4.40;;
57969;SDS011;43777;42.656;23.264;2022-07-10T10:40:50;10.02;;;4.55;;
57969;SDS011;43777;42.656;23.264;2022-07-10T10:43:21;5.15;;;4.50;;
57969;SDS011;43777;42.656;23.264;2022-07-10T10:45:48;6.25;;;4.53;;
57969;SDS011;43777;42.656;23.264;2022-07-10T10:48:15;5.15;;;4.53;;
57969;SDS011;43777;42.656;23.264;2022-07-10T10:50:45;7.82;;;4.65;;
57969;SDS011;43777;42.656;23.264;2022-07-10T10:53:15;5.55;;;5.00;;
57969;SDS011;43777;42.656;23.264;2022-07-10T10:56:20;4.72;;;4.20;;
57969;SDS011;43777;42.656;23.264;2022-07-10T10:58:36;5.97;;;4.30;;
57969;SDS011;43777;42.656;23.264;2022-07-10T11:01:06;8.25;;;4.40;;
57969;SDS011;43777;42.656;23.264;2022-07-10T11:06:40;5.35;;;3.95;;
57969;SDS011;43777;42.656;23.264;2022-07-10T11:12:12;6.85;;;4.95;;
57969;SDS011;43777;42.656;23.264;2022-07-10T11:14:38;4.50;;;4.10;;
57969;SDS011;43777;42.656;23.264;2022-07-10T11:17:05;7.70;;;4.40;;
57969;SDS011;43777;42.656;23.264;2022-07-10T11:19:32;4.20;;;3.90;;
57969;SDS011;43777;42.656;23.264;2022-07-10T11:22:11;4.47;;;4.07;;
57969;SDS011;43777;42.656;23.264;2022-07-10T11:29:40;6.65;;;3.90;;
57969;SDS011;43777;42.656;23.264;2022-07-10T11:32:06;4.53;;;4.10;;
57969;SDS011;43777;42.656;23.264;2022-07-10T11:34:36;6.57;;;4.05;;
57969;SDS011;43777;42.656;23.264;2022-07-10T11:37:03;4.50;;;4.10;;
57969;SDS011;43777;42.656;23.264;2022-07-10T11:39:29;7.68;;;4.60;;
57969;SDS011;43777;42.656;23.264;2022-07-10T11:41:55;5.75;;;4.18;;
57969;SDS011;43777;42.656;23.264;2022-07-10T11:44:21;4.32;;;3.78;;
57969;SDS011;43777;42.656;23.264;2022-07-10T11:46:47;6.95;;;3.55;;
57969;SDS011;43777;42.656;23.264;2022-07-10T11:49:15;5.38;;;4.40;;
57969;SDS011;43777;42.656;23.264;2022-07-10T11:51:42;7.20;;;4.15;;
57969;SDS011;43777;42.656;23.264;2022-07-10T11:54:16;5.82;;;4.25;;
57969;SDS011;43777;42.656;23.264;2022-07-10T11:56:50;5.55;;;3.85;;
57969;SDS011;43777;42.656;23.264;2022-07-10T11:59:17;4.75;;;4.00;;
57969;SDS011;43777;42.656;23.264;2022-07-10T12:01:48;8.23;;;4.00;;
57969;SDS011;43777;42.656;23.264;2022-07-10T12:04:15;6.53;;;3.70;;
57969;SDS011;43777;42.656;23.264;2022-07-10T12:06:42;5.70;;;3.05;;
57969;SDS011;43777;42.656;23.264;2022-07-10T12:09:13;8.65;;;3.53;;
57969;SDS011;43777;42.656;23.264;2022-07-10T12:11:39;4.40;;;3.95;;
57969;SDS011;43777;42.656;23.264;2022-07-10T12:14:13;6.07;;;4.05;;
57969;SDS011;43777;42.656;23.264;2022-07-10T12:16:40;6.00;;;3.97;;
57969;SDS011;43777;42.656;23.264;2022-07-10T12:19:07;4.10;;;3.70;;
57969;SDS011;43777;42.656;23.264;2022-07-10T12:21:34;4.72;;;3.60;;
57969;SDS011;43777;42.656;23.264;2022-07-10T12:24:00;3.50;;;3.20;;
57969;SDS011;43777;42.656;23.264;2022-07-10T12:26:34;3.13;;;2.88;;
57969;SDS011;43777;42.656;23.264;2022-07-10T12:29:00;6.03;;;3.50;;
57969;SDS011;43777;42.656;23.264;2022-07-10T12:31:28;3.92;;;3.47;;
57969;SDS011;43777;42.656;23.264;2022-07-10T12:33:57;7.32;;;3.80;;
57969;SDS011;43777;42.656;23.264;2022-07-10T12:36:26;5.90;;;3.35;;
57969;SDS011;43777;42.656;23.264;2022-07-10T12:38:53;6.10;;;3.40;;
57969;SDS011;43777;42.656;23.264;2022-07-10T12:41:20;3.30;;;2.85;;
57969;SDS011;43777;42.656;23.264;2022-07-10T12:43:49;5.50;;;3.10;;
57969;SDS011;43777;42.656;23.264;2022-07-10T12:46:17;4.80;;;3.08;;
57969;SDS011;43777;42.656;23.264;2022-07-10T12:51:31;7.57;;;3.08;;
57969;SDS011;43777;42.656;23.264;2022-07-10T12:53:57;4.93;;;2.90;;
57969;SDS011;43777;42.656;23.264;2022-07-10T12:56:27;3.38;;;2.63;;
57969;SDS011;43777;42.656;23.264;2022-07-10T12:58:54;2.97;;;2.45;;
57969;SDS011;43777;42.656;23.264;2022-07-10T13:01:20;4.75;;;2.45;;
57969;SDS011;43777;42.656;23.264;2022-07-10T13:03:46;6.40;;;2.78;;
57969;SDS011;43777;42.656;23.264;2022-07-10T13:06:28;5.38;;;2.90;;
57969;SDS011;43777;42.656;23.264;2022-07-10T13:08:54;5.82;;;2.42;;
57969;SDS011;43777;42.656;23.264;2022-07-10T13:11:20;5.40;;;2.53;;
57969;SDS011;43777;42.656;23.264;2022-07-10T13:13:47;4.85;;;2.45;;
57969;SDS011;43777;42.656;23.264;2022-07-10T13:16:13;4.40;;;2.90;;
57969;SDS011;43777;42.656;23.264;2022-07-10T13:18:41;2.55;;;2.35;;
57969;SDS011;43777;42.656;23.264;2022-07-10T13:21:09;3.55;;;2.40;;
57969;SDS011;43777;42.656;23.264;2022-07-10T13:23:36;3.03;;;2.40;;
57969;SDS011;43777;42.656;23.264;2022-07-10T13:26:03;3.28;;;2.42;;
57969;SDS011;43777;42.656;23.264;2022-07-10T13:28:29;3.05;;;2.17;;
57969;SDS011;43777;42.656;23.264;2022-07-10T13:30:56;6.43;;;2.17;;
57969;SDS011;43777;42.656;23.264;2022-07-10T13:33:22;4.70;;;1.90;;
57969;SDS011;43777;42.656;23.264;2022-07-10T13:35:51;4.53;;;2.15;;
57969;SDS011;43777;42.656;23.264;2022-07-10T13:38:17;2.28;;;1.80;;
57969;SDS011;43777;42.656;23.264;2022-07-10T13:40:45;3.00;;;2.20;;
57969;SDS011;43777;42.656;23.264;2022-07-10T13:43:12;2.15;;;1.95;;
57969;SDS011;43777;42.656;23.264;2022-07-10T13:45:38;5.15;;;2.20;;
57969;SDS011;43777;42.656;23.264;2022-07-10T13:48:11;4.80;;;2.15;;
57969;SDS011;43777;42.656;23.264;2022-07-10T13:50:37;5.53;;;2.40;;
57969;SDS011;43777;42.656;23.264;2022-07-10T13:53:03;4.25;;;2.10;;
57969;SDS011;43777;42.656;23.264;2022-07-10T13:55:30;3.22;;;2.22;;
57969;SDS011;43777;42.656;23.264;2022-07-10T13:57:56;2.22;;;2.03;;
57969;SDS011;43777;42.656;23.264;2022-07-10T14:00:22;3.20;;;2.00;;
57969;SDS011;43777;42.656;23.264;2022-07-10T14:02:48;2.42;;;2.20;;
57969;SDS011;43777;42.656;23.264;2022-07-10T14:05:14;4.80;;;2.10;;
57969;SDS011;43777;42.656;23.264;2022-07-10T14:07:40;2.17;;;1.73;;
57969;SDS011;43777;42.656;23.264;2022-07-10T14:10:06;4.68;;;2.30;;
57969;SDS011;43777;42.656;23.264;2022-07-10T14:12:33;3.08;;;1.98;;
57969;SDS011;43777;42.656;23.264;2022-07-10T14:14:59;2.65;;;1.98;;
57969;SDS011;43777;42.656;23.264;2022-07-10T14:17:25;2.30;;;2.10;;
57969;SDS011;43777;42.656;23.264;2022-07-10T14:19:53;4.85;;;2.58;;
57969;SDS011;43777;42.656;23.264;2022-07-10T14:22:19;2.40;;;2.00;;
57969;SDS011;43777;42.656;23.264;2022-07-10T14:24:46;3.75;;;2.03;;
57969;SDS011;43777;42.656;23.264;2022-07-10T14:27:12;6.90;;;2.20;;
57969;SDS011;43777;42.656;23.264;2022-07-10T14:29:39;4.30;;;2.17;;
57969;SDS011;43777;42.656;23.264;2022-07-10T14:32:05;3.58;;;2.00;;
57969;SDS011;43777;42.656;23.264;2022-07-10T14:34:31;4.18;;;2.10;;
57969;SDS011;43777;42.656;23.264;2022-07-10T14:36:57;2.33;;;2.13;;
57969;SDS011;43777;42.656;23.264;2022-07-10T14:39:24;4.95;;;2.38;;
57969;SDS011;43777;42.656;23.264;2022-07-10T14:41:50;3.58;;;2.20;;
57969;SDS011;43777;42.656;23.264;2022-07-10T14:44:16;6.00;;;2.25;;
57969;SDS011;43777;42.656;23.264;2022-07-10T14:46:42;3.08;;;2.00;;
57969;SDS011;43777;42.656;23.264;2022-07-10T14:49:08;3.03;;;2.25;;
57969;SDS011;43777;42.656;23.264;2022-07-10T14:51:34;4.05;;;2.38;;
57969;SDS011;43777;42.656;23.264;2022-07-10T14:54:01;6.22;;;2.40;;
57969;SDS011;43777;42.656;23.264;2022-07-10T14:56:27;2.28;;;2.08;;